sensor_id;sensor_type;location;lat;lon;timestamp;temperature;humidity
7331;DHT22;3706;49.198;7.064;2022-12-20T00:00:06;4.90;99.90
7331;DHT22;3706;49.198;7.064;2022-12-20T00:02:33;4.90;99.90
7331;DHT22;3706;49.198;7.064;2022-12-20T00:05:00;4.90;99.90
7331;DHT22;3706;49.198;7.064;2022-12-20T00:07:27;4.80;99.90
7331;DHT22;3706;49.198;7.064;2022-12-20T00:09:54;4.80;99.90
7331;DHT22;3706;49.198;7.064;2022-12-20T00:12:21;4.70;99.90
7331;DHT22;3706;49.198;7.064;2022-12-20T00:14:50;4.70;99.90
7331;DHT22;3706;49.198;7.064;2022-12-20T00:17:17;4.80;99.90
7331;DHT22;3706;49.198;7.064;2022-12-20T00:19:44;4.80;99.90
7331;DHT22;3706;49.198;7.064;2022-12-20T00:22:11;4.70;99.90
7331;DHT22;3706;49.198;7.064;2022-12-20T00:24:37;4.70;99.90
7331;DHT22;3706;49.198;7.064;2022-12-20T00:27:04;4.70;99.90
7331;DHT22;3706;49.198;7.064;2022-12-20T00:29:31;4.60;99.90
7331;DHT22;3706;49.198;7.064;2022-12-20T00:31:59;4.60;99.90
7331;DHT22;3706;49.198;7.064;2022-12-20T00:34:26;4.60;99.90
7331;DHT22;3706;49.198;7.064;2022-12-20T00:36:53;4.60;99.90
7331;DHT22;3706;49.198;7.064;2022-12-20T00:39:20;4.50;99.90
7331;DHT22;3706;49.198;7.064;2022-12-20T00:41:47;4.80;99.90
7331;DHT22;3706;49.198;7.064;2022-12-20T00:44:14;4.60;99.90
7331;DHT22;3706;49.198;7.064;2022-12-20T00:46:41;4.60;99.90
7331;DHT22;3706;49.198;7.064;2022-12-20T00:49:09;4.60;99.90
7331;DHT22;3706;49.198;7.064;2022-12-20T00:51:36;4.50;99.90
7331;DHT22;3706;49.198;7.064;2022-12-20T00:54:03;4.40;99.90
7331;DHT22;3706;49.198;7.064;2022-12-20T00:56:30;4.40;99.90
7331;DHT22;3706;49.198;7.064;2022-12-20T00:58:57;4.20;99.90
7331;DHT22;3706;49.198;7.064;2022-12-20T01:01:27;4.30;99.90
7331;DHT22;3706;49.198;7.064;2022-12-20T01:03:54;4.20;99.90
7331;DHT22;3706;49.198;7.064;2022-12-20T01:06:24;4.20;99.90
7331;DHT22;3706;49.198;7.064;2022-12-20T01:08:51;4.20;99.90
7331;DHT22;3706;49.198;7.064;2022-12-20T01:11:20;4.20;99.90
7331;DHT22;3706;49.198;7.064;2022-12-20T01:13:49;4.30;99.90
7331;DHT22;3706;49.198;7.064;2022-12-20T01:16:18;4.30;99.90
7331;DHT22;3706;49.198;7.064;2022-12-20T01:18:46;4.30;99.90
7331;DHT22;3706;49.198;7.064;2022-12-20T01:21:15;4.20;99.90
7331;DHT22;3706;49.198;7.064;2022-12-20T01:23:43;4.20;99.90
7331;DHT22;3706;49.198;7.064;2022-12-20T01:26:12;4.20;99.90
7331;DHT22;3706;49.198;7.064;2022-12-20T01:28:41;4.20;99.90
7331;DHT22;3706;49.198;7.064;2022-12-20T01:31:09;4.10;99.90
7331;DHT22;3706;49.198;7.064;2022-12-20T01:33:37;4.10;99.90
7331;DHT22;3706;49.198;7.064;2022-12-20T01:36:05;4.00;99.90
7331;DHT22;3706;49.198;7.064;2022-12-20T01:38:33;3.90;99.90
7331;DHT22;3706;49.198;7.064;2022-12-20T01:41:02;3.80;99.90
7331;DHT22;3706;49.198;7.064;2022-12-20T01:43:46;3.80;99.90
7331;DHT22;3706;49.198;7.064;2022-12-20T01:46:13;3.70;99.90
7331;DHT22;3706;49.198;7.064;2022-12-20T01:48:41;3.70;99.90
7331;DHT22;3706;49.198;7.064;2022-12-20T01:51:10;3.60;99.90
7331;DHT22;3706;49.198;7.064;2022-12-20T01:53:37;3.60;99.90
7331;DHT22;3706;49.198;7.064;2022-12-20T01:56:06;3.60;99.90
7331;DHT22;3706;49.198;7.064;2022-12-20T01:58:36;3.50;99.90
7331;DHT22;3706;49.198;7.064;2022-12-20T02:01:04;3.50;99.90
7331;DHT22;3706;49.198;7.064;2022-12-20T02:03:31;3.50;99.90
7331;DHT22;3706;49.198;7.064;2022-12-20T02:06:13;3.60;99.90
7331;DHT22;3706;49.198;7.064;2022-12-20T02:08:41;3.50;99.90
7331;DHT22;3706;49.198;7.064;2022-12-20T02:11:20;3.50;99.90
7331;DHT22;3706;49.198;7.064;2022-12-20T02:13:55;3.50;99.90
7331;DHT22;3706;49.198;7.064;2022-12-20T02:16:29;3.50;99.90
7331;DHT22;3706;49.198;7.064;2022-12-20T02:19:00;3.50;99.90
7331;DHT22;3706;49.198;7.064;2022-12-20T02:21:33;3.50;99.90
7331;DHT22;3706;49.198;7.064;2022-12-20T02:27:14;3.50;99.90
7331;DHT22;3706;49.198;7.064;2022-12-20T02:30:09;3.50;99.90
7331;DHT22;3706;49.198;7.064;2022-12-20T02:32:39;3.50;99.90
7331;DHT22;3706;49.198;7.064;2022-12-20T02:35:10;3.50;99.90
7331;DHT22;3706;49.198;7.064;2022-12-20T02:37:46;3.60;99.90
7331;DHT22;3706;49.198;7.064;2022-12-20T02:40:14;3.60;99.90
7331;DHT22;3706;49.198;7.064;2022-12-20T02:42:43;3.60;99.90
7331;DHT22;3706;49.198;7.064;2022-12-20T02:45:11;3.60;99.90
7331;DHT22;3706;49.198;7.064;2022-12-20T02:47:47;3.60;99.90
7331;DHT22;3706;49.198;7.064;2022-12-20T02:50:17;3.60;99.90
7331;DHT22;3706;49.198;7.064;2022-12-20T02:52:46;3.70;99.90
7331;DHT22;3706;49.198;7.064;2022-12-20T02:55:13;3.70;99.90
7331;DHT22;3706;49.198;7.064;2022-12-20T02:57:44;3.70;99.90
7331;DHT22;3706;49.198;7.064;2022-12-20T03:00:17;3.80;99.90
7331;DHT22;3706;49.198;7.064;2022-12-20T03:02:44;3.80;99.90
7331;DHT22;3706;49.198;7.064;2022-12-20T03:05:31;3.80;99.90
7331;DHT22;3706;49.198;7.064;2022-12-20T03:08:00;3.80;99.90
7331;DHT22;3706;49.198;7.064;2022-12-20T03:10:27;3.80;99.90
7331;DHT22;3706;49.198;7.064;2022-12-20T03:12:54;3.70;99.90
7331;DHT22;3706;49.198;7.064;2022-12-20T03:15:22;3.60;99.90
7331;DHT22;3706;49.198;7.064;2022-12-20T03:17:49;3.50;99.90
7331;DHT22;3706;49.198;7.064;2022-12-20T03:20:16;3.40;99.90
7331;DHT22;3706;49.198;7.064;2022-12-20T03:22:43;3.40;99.90
7331;DHT22;3706;49.198;7.064;2022-12-20T03:25:10;3.30;99.90
7331;DHT22;3706;49.198;7.064;2022-12-20T03:27:37;3.20;99.90
7331;DHT22;3706;49.198;7.064;2022-12-20T03:30:05;3.20;99.90
7331;DHT22;3706;49.198;7.064;2022-12-20T03:32:33;3.20;99.90
7331;DHT22;3706;49.198;7.064;2022-12-20T03:35:00;3.20;99.90
7331;DHT22;3706;49.198;7.064;2022-12-20T03:37:27;3.20;99.90
7331;DHT22;3706;49.198;7.064;2022-12-20T03:39:54;3.20;99.90
7331;DHT22;3706;49.198;7.064;2022-12-20T03:42:21;3.20;99.90
7331;DHT22;3706;49.198;7.064;2022-12-20T03:44:48;3.20;99.90
7331;DHT22;3706;49.198;7.064;2022-12-20T03:47:15;3.20;99.90
7331;DHT22;3706;49.198;7.064;2022-12-20T03:49:44;3.20;99.90
7331;DHT22;3706;49.198;7.064;2022-12-20T03:52:11;3.30;99.90
7331;DHT22;3706;49.198;7.064;2022-12-20T03:54:38;3.30;99.90
7331;DHT22;3706;49.198;7.064;2022-12-20T03:57:05;3.40;99.90
7331;DHT22;3706;49.198;7.064;2022-12-20T03:59:32;3.50;99.90
7331;DHT22;3706;49.198;7.064;2022-12-20T04:02:00;3.60;99.90
7331;DHT22;3706;49.198;7.064;2022-12-20T04:04:27;3.60;99.90
7331;DHT22;3706;49.198;7.064;2022-12-20T04:06:55;3.70;99.90
7331;DHT22;3706;49.198;7.064;2022-12-20T04:09:22;3.70;99.90
7331;DHT22;3706;49.198;7.064;2022-12-20T04:11:49;3.70;99.90
7331;DHT22;3706;49.198;7.064;2022-12-20T04:14:16;3.70;99.90
7331;DHT22;3706;49.198;7.064;2022-12-20T04:16:43;3.70;99.90
7331;DHT22;3706;49.198;7.064;2022-12-20T04:19:10;3.80;99.90
7331;DHT22;3706;49.198;7.064;2022-12-20T04:21:37;3.80;99.90
7331;DHT22;3706;49.198;7.064;2022-12-20T04:24:06;3.80;99.90
7331;DHT22;3706;49.198;7.064;2022-12-20T04:26:33;3.80;99.90
7331;DHT22;3706;49.198;7.064;2022-12-20T04:29:00;3.80;99.90
7331;DHT22;3706;49.198;7.064;2022-12-20T04:31:27;3.80;99.90
7331;DHT22;3706;49.198;7.064;2022-12-20T04:33:53;3.90;99.90
7331;DHT22;3706;49.198;7.064;2022-12-20T04:36:20;4.00;99.90
7331;DHT22;3706;49.198;7.064;2022-12-20T04:38:47;4.00;99.90
7331;DHT22;3706;49.198;7.064;2022-12-20T04:41:16;4.00;99.90
7331;DHT22;3706;49.198;7.064;2022-12-20T04:43:48;4.00;99.90
7331;DHT22;3706;49.198;7.064;2022-12-20T04:46:16;4.10;99.90
7331;DHT22;3706;49.198;7.064;2022-12-20T04:48:43;4.00;99.90
7331;DHT22;3706;49.198;7.064;2022-12-20T04:51:10;4.10;99.90
7331;DHT22;3706;49.198;7.064;2022-12-20T04:53:37;4.10;99.90
7331;DHT22;3706;49.198;7.064;2022-12-20T04:56:13;4.20;99.90
7331;DHT22;3706;49.198;7.064;2022-12-20T04:58:42;4.20;99.90
7331;DHT22;3706;49.198;7.064;2022-12-20T05:01:09;4.10;99.90
7331;DHT22;3706;49.198;7.064;2022-12-20T05:03:36;4.10;99.90
7331;DHT22;3706;49.198;7.064;2022-12-20T05:06:04;4.10;99.90
7331;DHT22;3706;49.198;7.064;2022-12-20T05:08:32;4.10;99.90
7331;DHT22;3706;49.198;7.064;2022-12-20T05:10:59;4.10;99.90
7331;DHT22;3706;49.198;7.064;2022-12-20T05:13:26;4.20;99.90
7331;DHT22;3706;49.198;7.064;2022-12-20T05:15:55;4.20;99.90
7331;DHT22;3706;49.198;7.064;2022-12-20T05:18:23;4.10;99.90
7331;DHT22;3706;49.198;7.064;2022-12-20T05:20:50;4.10;99.90
7331;DHT22;3706;49.198;7.064;2022-12-20T05:23:38;4.20;99.90
7331;DHT22;3706;49.198;7.064;2022-12-20T05:26:22;4.20;99.90
7331;DHT22;3706;49.198;7.064;2022-12-20T05:28:50;4.30;99.90
7331;DHT22;3706;49.198;7.064;2022-12-20T05:31:18;4.30;99.90
7331;DHT22;3706;49.198;7.064;2022-12-20T05:33:45;4.40;99.90
7331;DHT22;3706;49.198;7.064;2022-12-20T05:36:13;4.40;99.90
7331;DHT22;3706;49.198;7.064;2022-12-20T05:38:39;4.40;99.90
7331;DHT22;3706;49.198;7.064;2022-12-20T05:41:06;4.40;99.90
7331;DHT22;3706;49.198;7.064;2022-12-20T05:43:33;4.50;99.90
7331;DHT22;3706;49.198;7.064;2022-12-20T05:46:00;4.50;99.90
7331;DHT22;3706;49.198;7.064;2022-12-20T05:48:29;4.60;99.90
7331;DHT22;3706;49.198;7.064;2022-12-20T05:50:56;4.60;99.90
7331;DHT22;3706;49.198;7.064;2022-12-20T05:53:23;4.70;99.90
7331;DHT22;3706;49.198;7.064;2022-12-20T05:55:52;4.70;99.90
7331;DHT22;3706;49.198;7.064;2022-12-20T05:58:19;4.70;99.90
7331;DHT22;3706;49.198;7.064;2022-12-20T06:00:46;4.80;99.90
7331;DHT22;3706;49.198;7.064;2022-12-20T06:03:13;4.80;99.90
7331;DHT22;3706;49.198;7.064;2022-12-20T06:05:43;4.90;99.90
7331;DHT22;3706;49.198;7.064;2022-12-20T06:08:10;4.90;99.90
7331;DHT22;3706;49.198;7.064;2022-12-20T06:10:39;4.80;99.90
7331;DHT22;3706;49.198;7.064;2022-12-20T06:13:07;4.80;99.90
7331;DHT22;3706;49.198;7.064;2022-12-20T06:15:35;4.80;99.90
7331;DHT22;3706;49.198;7.064;2022-12-20T06:18:02;4.80;99.90
7331;DHT22;3706;49.198;7.064;2022-12-20T06:20:30;4.70;99.90
7331;DHT22;3706;49.198;7.064;2022-12-20T06:22:59;4.70;99.90
7331;DHT22;3706;49.198;7.064;2022-12-20T06:25:26;4.70;99.90
7331;DHT22;3706;49.198;7.064;2022-12-20T06:27:53;4.60;99.90
7331;DHT22;3706;49.198;7.064;2022-12-20T06:30:20;4.70;99.90
7331;DHT22;3706;49.198;7.064;2022-12-20T06:32:47;4.60;99.90
7331;DHT22;3706;49.198;7.064;2022-12-20T06:35:14;4.60;99.90
7331;DHT22;3706;49.198;7.064;2022-12-20T06:37:41;4.50;99.90
7331;DHT22;3706;49.198;7.064;2022-12-20T06:40:12;4.50;99.90
7331;DHT22;3706;49.198;7.064;2022-12-20T06:42:39;4.50;99.90
7331;DHT22;3706;49.198;7.064;2022-12-20T06:45:07;4.50;99.90
7331;DHT22;3706;49.198;7.064;2022-12-20T06:47:34;4.60;99.90
7331;DHT22;3706;49.198;7.064;2022-12-20T06:50:02;4.70;99.90
7331;DHT22;3706;49.198;7.064;2022-12-20T06:52:29;4.70;99.90
7331;DHT22;3706;49.198;7.064;2022-12-20T06:54:55;4.80;99.90
7331;DHT22;3706;49.198;7.064;2022-12-20T06:57:24;4.80;99.90
7331;DHT22;3706;49.198;7.064;2022-12-20T06:59:51;4.80;99.90
7331;DHT22;3706;49.198;7.064;2022-12-20T07:02:18;4.80;99.90
7331;DHT22;3706;49.198;7.064;2022-12-20T07:04:45;4.90;99.90
7331;DHT22;3706;49.198;7.064;2022-12-20T07:07:12;4.90;99.90
7331;DHT22;3706;49.198;7.064;2022-12-20T07:09:39;5.00;99.90
7331;DHT22;3706;49.198;7.064;2022-12-20T07:12:07;5.00;99.90
7331;DHT22;3706;49.198;7.064;2022-12-20T07:14:36;5.00;99.90
7331;DHT22;3706;49.198;7.064;2022-12-20T07:17:03;5.10;99.90
7331;DHT22;3706;49.198;7.064;2022-12-20T07:19:30;5.10;99.90
7331;DHT22;3706;49.198;7.064;2022-12-20T07:21:57;5.20;99.90
7331;DHT22;3706;49.198;7.064;2022-12-20T07:24:24;5.30;99.90
7331;DHT22;3706;49.198;7.064;2022-12-20T07:26:51;5.40;99.90
7331;DHT22;3706;49.198;7.064;2022-12-20T07:29:18;5.60;99.90
7331;DHT22;3706;49.198;7.064;2022-12-20T07:31:46;5.80;99.90
7331;DHT22;3706;49.198;7.064;2022-12-20T07:34:13;6.10;99.90
7331;DHT22;3706;49.198;7.064;2022-12-20T07:36:40;6.40;99.90
7331;DHT22;3706;49.198;7.064;2022-12-20T07:39:07;6.50;99.90
7331;DHT22;3706;49.198;7.064;2022-12-20T07:41:34;6.70;99.90
7331;DHT22;3706;49.198;7.064;2022-12-20T07:44:01;7.00;99.90
7331;DHT22;3706;49.198;7.064;2022-12-20T07:46:28;7.30;99.90
7331;DHT22;3706;49.198;7.064;2022-12-20T07:48:56;7.50;99.90
7331;DHT22;3706;49.198;7.064;2022-12-20T07:51:26;7.70;99.90
7331;DHT22;3706;49.198;7.064;2022-12-20T07:53:57;7.80;99.90
7331;DHT22;3706;49.198;7.064;2022-12-20T07:56:26;8.00;99.90
7331;DHT22;3706;49.198;7.064;2022-12-20T07:58:56;8.10;99.90
7331;DHT22;3706;49.198;7.064;2022-12-20T08:01:25;8.20;99.90
7331;DHT22;3706;49.198;7.064;2022-12-20T08:03:57;8.40;99.90
7331;DHT22;3706;49.198;7.064;2022-12-20T08:06:26;8.60;99.90
7331;DHT22;3706;49.198;7.064;2022-12-20T08:08:55;8.80;99.90
7331;DHT22;3706;49.198;7.064;2022-12-20T08:11:24;9.00;99.90
7331;DHT22;3706;49.198;7.064;2022-12-20T08:13:51;9.10;99.90
7331;DHT22;3706;49.198;7.064;2022-12-20T08:16:18;9.30;99.90
7331;DHT22;3706;49.198;7.064;2022-12-20T08:18:45;9.50;99.90
7331;DHT22;3706;49.198;7.064;2022-12-20T08:21:14;9.70;99.90
7331;DHT22;3706;49.198;7.064;2022-12-20T08:23:40;9.80;99.90
7331;DHT22;3706;49.198;7.064;2022-12-20T08:26:07;9.90;99.90
7331;DHT22;3706;49.198;7.064;2022-12-20T08:28:35;9.90;99.90
7331;DHT22;3706;49.198;7.064;2022-12-20T08:31:02;10.00;99.90
7331;DHT22;3706;49.198;7.064;2022-12-20T08:33:29;9.90;99.90
7331;DHT22;3706;49.198;7.064;2022-12-20T08:35:57;10.00;99.90
7331;DHT22;3706;49.198;7.064;2022-12-20T08:38:26;10.00;99.90
7331;DHT22;3706;49.198;7.064;2022-12-20T08:40:54;10.00;99.90
7331;DHT22;3706;49.198;7.064;2022-12-20T08:43:21;10.00;99.90
7331;DHT22;3706;49.198;7.064;2022-12-20T08:45:52;9.90;99.90
7331;DHT22;3706;49.198;7.064;2022-12-20T08:48:20;9.80;99.90
7331;DHT22;3706;49.198;7.064;2022-12-20T08:50:47;9.80;99.90
7331;DHT22;3706;49.198;7.064;2022-12-20T08:53:19;9.80;99.90
7331;DHT22;3706;49.198;7.064;2022-12-20T08:55:47;9.70;99.90
7331;DHT22;3706;49.198;7.064;2022-12-20T08:58:14;9.70;99.90
7331;DHT22;3706;49.198;7.064;2022-12-20T09:00:41;9.70;99.90
7331;DHT22;3706;49.198;7.064;2022-12-20T09:03:08;9.80;99.90
7331;DHT22;3706;49.198;7.064;2022-12-20T09:05:40;9.90;99.90
7331;DHT22;3706;49.198;7.064;2022-12-20T09:08:08;9.90;99.90
7331;DHT22;3706;49.198;7.064;2022-12-20T09:10:35;10.10;99.90
7331;DHT22;3706;49.198;7.064;2022-12-20T09:13:03;10.20;99.90
7331;DHT22;3706;49.198;7.064;2022-12-20T09:15:30;10.20;99.90
7331;DHT22;3706;49.198;7.064;2022-12-20T09:17:59;10.30;99.90
7331;DHT22;3706;49.198;7.064;2022-12-20T09:20:26;10.30;99.90
7331;DHT22;3706;49.198;7.064;2022-12-20T09:22:53;10.30;99.90
7331;DHT22;3706;49.198;7.064;2022-12-20T09:25:20;10.40;99.90
7331;DHT22;3706;49.198;7.064;2022-12-20T09:27:47;10.50;99.90
7331;DHT22;3706;49.198;7.064;2022-12-20T09:30:15;10.60;99.90
7331;DHT22;3706;49.198;7.064;2022-12-20T09:32:42;10.70;99.90
7331;DHT22;3706;49.198;7.064;2022-12-20T09:35:10;10.80;99.90
7331;DHT22;3706;49.198;7.064;2022-12-20T09:37:37;10.90;99.90
7331;DHT22;3706;49.198;7.064;2022-12-20T09:40:05;11.10;99.90
7331;DHT22;3706;49.198;7.064;2022-12-20T09:42:32;11.20;99.90
7331;DHT22;3706;49.198;7.064;2022-12-20T09:45:06;11.30;99.90
7331;DHT22;3706;49.198;7.064;2022-12-20T09:47:36;11.40;99.90
7331;DHT22;3706;49.198;7.064;2022-12-20T09:50:06;11.50;99.90
7331;DHT22;3706;49.198;7.064;2022-12-20T09:52:45;11.60;99.90
7331;DHT22;3706;49.198;7.064;2022-12-20T09:55:21;11.60;99.90
7331;DHT22;3706;49.198;7.064;2022-12-20T09:58:04;11.60;99.90
7331;DHT22;3706;49.198;7.064;2022-12-20T10:00:34;11.60;99.90
7331;DHT22;3706;49.198;7.064;2022-12-20T10:03:03;11.60;99.90
7331;DHT22;3706;49.198;7.064;2022-12-20T10:05:34;11.50;99.90
7331;DHT22;3706;49.198;7.064;2022-12-20T10:08:07;11.40;99.90
7331;DHT22;3706;49.198;7.064;2022-12-20T10:10:49;11.40;99.90
7331;DHT22;3706;49.198;7.064;2022-12-20T10:13:25;11.40;99.90
7331;DHT22;3706;49.198;7.064;2022-12-20T10:15:58;11.40;99.90
7331;DHT22;3706;49.198;7.064;2022-12-20T10:18:42;11.40;99.90
7331;DHT22;3706;49.198;7.064;2022-12-20T10:21:18;11.40;99.90
7331;DHT22;3706;49.198;7.064;2022-12-20T10:23:56;11.50;99.90
7331;DHT22;3706;49.198;7.064;2022-12-20T10:26:26;11.50;99.90
7331;DHT22;3706;49.198;7.064;2022-12-20T10:28:54;11.60;99.90
7331;DHT22;3706;49.198;7.064;2022-12-20T10:31:22;11.60;99.90
7331;DHT22;3706;49.198;7.064;2022-12-20T10:33:51;11.60;99.90
7331;DHT22;3706;49.198;7.064;2022-12-20T10:36:21;11.60;99.90
7331;DHT22;3706;49.198;7.064;2022-12-20T10:38:50;11.50;99.90
7331;DHT22;3706;49.198;7.064;2022-12-20T10:41:18;11.50;99.90
7331;DHT22;3706;49.198;7.064;2022-12-20T10:43:48;11.40;99.90
7331;DHT22;3706;49.198;7.064;2022-12-20T10:46:18;11.40;99.90
7331;DHT22;3706;49.198;7.064;2022-12-20T10:48:46;11.50;99.90
7331;DHT22;3706;49.198;7.064;2022-12-20T10:51:17;11.50;99.90
7331;DHT22;3706;49.198;7.064;2022-12-20T10:53:56;11.60;99.90
7331;DHT22;3706;49.198;7.064;2022-12-20T10:56:25;11.70;99.90
7331;DHT22;3706;49.198;7.064;2022-12-20T10:58:55;11.80;99.90
7331;DHT22;3706;49.198;7.064;2022-12-20T11:01:26;11.90;99.90
7331;DHT22;3706;49.198;7.064;2022-12-20T11:03:56;12.00;99.90
7331;DHT22;3706;49.198;7.064;2022-12-20T11:06:28;12.10;99.90
7331;DHT22;3706;49.198;7.064;2022-12-20T11:09:21;12.20;99.90
7331;DHT22;3706;49.198;7.064;2022-12-20T11:11:59;12.30;99.90
7331;DHT22;3706;49.198;7.064;2022-12-20T11:14:27;12.40;99.90
7331;DHT22;3706;49.198;7.064;2022-12-20T11:16:55;12.50;99.90
7331;DHT22;3706;49.198;7.064;2022-12-20T11:19:33;12.60;99.90
7331;DHT22;3706;49.198;7.064;2022-12-20T11:22:14;12.60;99.90
7331;DHT22;3706;49.198;7.064;2022-12-20T11:24:51;12.60;99.90
7331;DHT22;3706;49.198;7.064;2022-12-20T11:27:29;12.60;99.90
7331;DHT22;3706;49.198;7.064;2022-12-20T11:30:04;12.70;99.90
7331;DHT22;3706;49.198;7.064;2022-12-20T11:32:53;13.00;99.90
7331;DHT22;3706;49.198;7.064;2022-12-20T11:35:29;13.30;99.90
7331;DHT22;3706;49.198;7.064;2022-12-20T11:38:11;13.50;99.90
7331;DHT22;3706;49.198;7.064;2022-12-20T11:40:48;13.70;99.90
7331;DHT22;3706;49.198;7.064;2022-12-20T11:43:28;13.90;99.90
7331;DHT22;3706;49.198;7.064;2022-12-20T11:46:08;14.10;99.90
7331;DHT22;3706;49.198;7.064;2022-12-20T11:48:57;14.20;99.90
7331;DHT22;3706;49.198;7.064;2022-12-20T11:51:37;14.40;99.90
7331;DHT22;3706;49.198;7.064;2022-12-20T11:54:11;14.30;99.90
7331;DHT22;3706;49.198;7.064;2022-12-20T11:56:41;14.30;99.90
7331;DHT22;3706;49.198;7.064;2022-12-20T11:59:17;14.30;99.90
7331;DHT22;3706;49.198;7.064;2022-12-20T12:01:49;14.40;99.90
7331;DHT22;3706;49.198;7.064;2022-12-20T12:04:20;14.40;99.90
7331;DHT22;3706;49.198;7.064;2022-12-20T12:06:51;14.40;99.90
7331;DHT22;3706;49.198;7.064;2022-12-20T12:09:24;14.30;99.90
7331;DHT22;3706;49.198;7.064;2022-12-20T12:11:57;14.30;99.90
7331;DHT22;3706;49.198;7.064;2022-12-20T12:14:37;14.30;99.90
7331;DHT22;3706;49.198;7.064;2022-12-20T12:17:11;14.30;99.90
7331;DHT22;3706;49.198;7.064;2022-12-20T12:19:42;14.30;99.90
7331;DHT22;3706;49.198;7.064;2022-12-20T12:22:14;14.30;99.90
7331;DHT22;3706;49.198;7.064;2022-12-20T12:24:47;14.30;99.90
7331;DHT22;3706;49.198;7.064;2022-12-20T12:27:25;14.30;99.90
7331;DHT22;3706;49.198;7.064;2022-12-20T12:29:53;14.30;99.90
7331;DHT22;3706;49.198;7.064;2022-12-20T12:32:26;14.30;99.90
7331;DHT22;3706;49.198;7.064;2022-12-20T12:35:18;14.30;99.90
7331;DHT22;3706;49.198;7.064;2022-12-20T12:38:03;14.20;99.90
7331;DHT22;3706;49.198;7.064;2022-12-20T12:40:45;14.20;99.90
7331;DHT22;3706;49.198;7.064;2022-12-20T12:43:43;14.20;99.90
7331;DHT22;3706;49.198;7.064;2022-12-20T12:46:12;14.20;99.90
7331;DHT22;3706;49.198;7.064;2022-12-20T12:48:44;14.10;99.90
7331;DHT22;3706;49.198;7.064;2022-12-20T12:51:13;14.00;99.90
7331;DHT22;3706;49.198;7.064;2022-12-20T12:53:43;14.00;99.90
7331;DHT22;3706;49.198;7.064;2022-12-20T12:56:38;14.00;99.90
7331;DHT22;3706;49.198;7.064;2022-12-20T13:02:35;14.00;99.90
7331;DHT22;3706;49.198;7.064;2022-12-20T13:05:32;14.10;99.90
7331;DHT22;3706;49.198;7.064;2022-12-20T13:07:59;14.10;99.90
7331;DHT22;3706;49.198;7.064;2022-12-20T13:10:56;14.00;99.90
7331;DHT22;3706;49.198;7.064;2022-12-20T13:13:25;14.00;99.90
7331;DHT22;3706;49.198;7.064;2022-12-20T13:16:05;14.00;99.90
7331;DHT22;3706;49.198;7.064;2022-12-20T13:18:35;14.10;99.90
7331;DHT22;3706;49.198;7.064;2022-12-20T13:21:35;14.00;99.90
7331;DHT22;3706;49.198;7.064;2022-12-20T13:24:36;14.00;99.90
7331;DHT22;3706;49.198;7.064;2022-12-20T13:27:26;14.00;99.90
7331;DHT22;3706;49.198;7.064;2022-12-20T13:33:38;14.00;99.90
7331;DHT22;3706;49.198;7.064;2022-12-20T13:36:30;13.90;99.90
7331;DHT22;3706;49.198;7.064;2022-12-20T13:38:59;13.90;99.90
7331;DHT22;3706;49.198;7.064;2022-12-20T13:41:40;13.90;99.90
7331;DHT22;3706;49.198;7.064;2022-12-20T13:44:35;13.90;99.90
7331;DHT22;3706;49.198;7.064;2022-12-20T13:47:16;14.00;99.90
7331;DHT22;3706;49.198;7.064;2022-12-20T13:49:47;14.00;99.90
7331;DHT22;3706;49.198;7.064;2022-12-20T13:52:26;13.90;99.90
7331;DHT22;3706;49.198;7.064;2022-12-20T13:54:57;13.90;99.90
7331;DHT22;3706;49.198;7.064;2022-12-20T13:57:30;13.80;99.90
7331;DHT22;3706;49.198;7.064;2022-12-20T14:00:01;13.70;99.90
7331;DHT22;3706;49.198;7.064;2022-12-20T14:02:33;13.60;99.90
7331;DHT22;3706;49.198;7.064;2022-12-20T14:05:03;13.60;99.90
7331;DHT22;3706;49.198;7.064;2022-12-20T14:07:33;13.50;99.90
7331;DHT22;3706;49.198;7.064;2022-12-20T14:10:14;13.50;99.90
7331;DHT22;3706;49.198;7.064;2022-12-20T14:12:44;13.40;99.90
7331;DHT22;3706;49.198;7.064;2022-12-20T14:15:21;13.40;99.90
7331;DHT22;3706;49.198;7.064;2022-12-20T14:17:48;13.40;99.90
7331;DHT22;3706;49.198;7.064;2022-12-20T14:20:20;13.30;99.90
7331;DHT22;3706;49.198;7.064;2022-12-20T14:22:53;13.30;99.90
7331;DHT22;3706;49.198;7.064;2022-12-20T14:25:30;13.30;99.90
7331;DHT22;3706;49.198;7.064;2022-12-20T14:27:58;13.20;99.90
7331;DHT22;3706;49.198;7.064;2022-12-20T14:30:28;13.20;99.90
7331;DHT22;3706;49.198;7.064;2022-12-20T14:32:57;13.10;99.90
7331;DHT22;3706;49.198;7.064;2022-12-20T14:35:25;13.00;99.90
7331;DHT22;3706;49.198;7.064;2022-12-20T14:37:55;13.00;99.90
7331;DHT22;3706;49.198;7.064;2022-12-20T14:40:22;12.80;99.90
7331;DHT22;3706;49.198;7.064;2022-12-20T14:42:50;12.80;99.90
7331;DHT22;3706;49.198;7.064;2022-12-20T14:45:19;12.70;99.90
7331;DHT22;3706;49.198;7.064;2022-12-20T14:47:49;12.70;99.90
7331;DHT22;3706;49.198;7.064;2022-12-20T14:50:19;12.70;99.90
7331;DHT22;3706;49.198;7.064;2022-12-20T14:52:48;12.70;99.90
7331;DHT22;3706;49.198;7.064;2022-12-20T14:55:17;12.60;99.90
7331;DHT22;3706;49.198;7.064;2022-12-20T14:57:46;12.60;99.90
7331;DHT22;3706;49.198;7.064;2022-12-20T15:00:21;12.60;99.90
7331;DHT22;3706;49.198;7.064;2022-12-20T15:02:58;12.60;99.90
7331;DHT22;3706;49.198;7.064;2022-12-20T15:05:48;12.60;99.90
7331;DHT22;3706;49.198;7.064;2022-12-20T15:08:22;12.70;99.90
7331;DHT22;3706;49.198;7.064;2022-12-20T15:11:09;12.70;99.90
7331;DHT22;3706;49.198;7.064;2022-12-20T15:13:39;12.70;99.90
7331;DHT22;3706;49.198;7.064;2022-12-20T15:16:13;12.70;99.90
7331;DHT22;3706;49.198;7.064;2022-12-20T15:18:40;12.70;99.90
7331;DHT22;3706;49.198;7.064;2022-12-20T15:21:12;12.70;99.90
7331;DHT22;3706;49.198;7.064;2022-12-20T15:23:44;12.70;99.90
7331;DHT22;3706;49.198;7.064;2022-12-20T15:26:14;12.70;99.90
7331;DHT22;3706;49.198;7.064;2022-12-20T15:28:41;12.70;99.90
7331;DHT22;3706;49.198;7.064;2022-12-20T15:31:09;12.60;99.90
7331;DHT22;3706;49.198;7.064;2022-12-20T15:33:38;12.60;99.90
7331;DHT22;3706;49.198;7.064;2022-12-20T15:36:05;12.60;99.90
7331;DHT22;3706;49.198;7.064;2022-12-20T15:38:32;12.60;99.90
7331;DHT22;3706;49.198;7.064;2022-12-20T15:41:03;12.60;99.90
7331;DHT22;3706;49.198;7.064;2022-12-20T15:43:36;12.50;99.90
7331;DHT22;3706;49.198;7.064;2022-12-20T15:46:04;12.50;99.90
7331;DHT22;3706;49.198;7.064;2022-12-20T15:48:31;12.30;99.90
7331;DHT22;3706;49.198;7.064;2022-12-20T15:50:59;12.20;99.90
7331;DHT22;3706;49.198;7.064;2022-12-20T15:53:29;12.10;99.90
7331;DHT22;3706;49.198;7.064;2022-12-20T15:55:56;11.90;99.90
7331;DHT22;3706;49.198;7.064;2022-12-20T15:58:26;11.80;99.90
7331;DHT22;3706;49.198;7.064;2022-12-20T16:00:55;11.50;99.90
7331;DHT22;3706;49.198;7.064;2022-12-20T16:03:28;11.30;99.90
7331;DHT22;3706;49.198;7.064;2022-12-20T16:05:56;11.10;99.90
7331;DHT22;3706;49.198;7.064;2022-12-20T16:08:23;10.90;99.90
7331;DHT22;3706;49.198;7.064;2022-12-20T16:10:51;10.70;99.90
7331;DHT22;3706;49.198;7.064;2022-12-20T16:13:21;10.50;99.90
7331;DHT22;3706;49.198;7.064;2022-12-20T16:15:50;10.40;99.90
7331;DHT22;3706;49.198;7.064;2022-12-20T16:18:18;10.20;99.90
7331;DHT22;3706;49.198;7.064;2022-12-20T16:20:45;10.10;99.90
7331;DHT22;3706;49.198;7.064;2022-12-20T16:23:15;10.00;99.90
7331;DHT22;3706;49.198;7.064;2022-12-20T16:25:43;9.90;99.90
7331;DHT22;3706;49.198;7.064;2022-12-20T16:28:11;9.80;99.90
7331;DHT22;3706;49.198;7.064;2022-12-20T16:30:38;9.80;99.90
7331;DHT22;3706;49.198;7.064;2022-12-20T16:33:15;9.80;99.90
7331;DHT22;3706;49.198;7.064;2022-12-20T16:35:43;9.70;99.90
7331;DHT22;3706;49.198;7.064;2022-12-20T16:38:10;9.70;99.90
7331;DHT22;3706;49.198;7.064;2022-12-20T16:40:37;9.70;99.90